sensor_id;sensor_type;location;lat;lon;timestamp;P1;durP1;ratioP1;P2;durP2;ratioP2
3771;SDS011;1901;48.172;12.824;2023-03-16T00:01:01;17.97;;;10.37;;
3771;SDS011;1901;48.172;12.824;2023-03-16T00:03:29;16.30;;;9.90;;
3771;SDS011;1901;48.172;12.824;2023-03-16T00:05:57;28.40;;;15.87;;
3771;SDS011;1901;48.172;12.824;2023-03-16T00:08:24;18.47;;;11.60;;
3771;SDS011;1901;48.172;12.824;2023-03-16T00:10:52;22.30;;;12.00;;
3771;SDS011;1901;48.172;12.824;2023-03-16T00:13:20;18.40;;;11.27;;
3771;SDS011;1901;48.172;12.824;2023-03-16T00:15:51;15.47;;;9.70;;
3771;SDS011;1901;48.172;12.824;2023-03-16T00:18:18;22.53;;;11.27;;
3771;SDS011;1901;48.172;12.824;2023-03-16T00:20:49;29.43;;;11.70;;
3771;SDS011;1901;48.172;12.824;2023-03-16T00:23:17;18.77;;;11.33;;
3771;SDS011;1901;48.172;12.824;2023-03-16T00:25:51;18.17;;;11.90;;
3771;SDS011;1901;48.172;12.824;2023-03-16T00:28:19;19.70;;;11.90;;
3771;SDS011;1901;48.172;12.824;2023-03-16T00:30:46;20.73;;;13.37;;
3771;SDS011;1901;48.172;12.824;2023-03-16T00:33:13;19.80;;;11.93;;
3771;SDS011;1901;48.172;12.824;2023-03-16T00:35:41;26.00;;;11.77;;
3771;SDS011;1901;48.172;12.824;2023-03-16T00:38:13;19.43;;;12.47;;
3771;SDS011;1901;48.172;12.824;2023-03-16T00:40:42;24.67;;;12.63;;
3771;SDS011;1901;48.172;12.824;2023-03-16T00:43:09;19.53;;;12.07;;
3771;SDS011;1901;48.172;12.824;2023-03-16T00:45:36;20.60;;;12.30;;
3771;SDS011;1901;48.172;12.824;2023-03-16T00:48:03;18.50;;;11.20;;
3771;SDS011;1901;48.172;12.824;2023-03-16T00:50:30;19.90;;;11.37;;
3771;SDS011;1901;48.172;12.824;2023-03-16T00:52:57;20.70;;;11.00;;
3771;SDS011;1901;48.172;12.824;2023-03-16T00:55:25;18.03;;;11.70;;
3771;SDS011;1901;48.172;12.824;2023-03-16T00:57:53;14.73;;;9.57;;
3771;SDS011;1901;48.172;12.824;2023-03-16T01:00:21;17.30;;;11.60;;
3771;SDS011;1901;48.172;12.824;2023-03-16T01:02:51;19.23;;;11.30;;
3771;SDS011;1901;48.172;12.824;2023-03-16T01:05:18;17.60;;;10.03;;
3771;SDS011;1901;48.172;12.824;2023-03-16T01:07:45;17.27;;;11.50;;
3771;SDS011;1901;48.172;12.824;2023-03-16T01:10:13;18.20;;;11.67;;
3771;SDS011;1901;48.172;12.824;2023-03-16T01:12:40;23.33;;;11.47;;
3771;SDS011;1901;48.172;12.824;2023-03-16T01:15:10;15.47;;;11.60;;
3771;SDS011;1901;48.172;12.824;2023-03-16T01:17:37;17.37;;;10.87;;
3771;SDS011;1901;48.172;12.824;2023-03-16T01:20:06;19.03;;;10.83;;
3771;SDS011;1901;48.172;12.824;2023-03-16T01:22:36;21.60;;;12.40;;
3771;SDS011;1901;48.172;12.824;2023-03-16T01:25:03;17.20;;;10.93;;
3771;SDS011;1901;48.172;12.824;2023-03-16T01:27:30;19.03;;;11.07;;
3771;SDS011;1901;48.172;12.824;2023-03-16T01:29:58;21.90;;;11.53;;
3771;SDS011;1901;48.172;12.824;2023-03-16T01:32:27;22.13;;;12.17;;
3771;SDS011;1901;48.172;12.824;2023-03-16T01:34:54;19.13;;;12.73;;
3771;SDS011;1901;48.172;12.824;2023-03-16T01:37:21;24.70;;;14.07;;
3771;SDS011;1901;48.172;12.824;2023-03-16T01:39:49;19.23;;;11.07;;
3771;SDS011;1901;48.172;12.824;2023-03-16T01:42:16;22.90;;;13.20;;
3771;SDS011;1901;48.172;12.824;2023-03-16T01:44:50;21.87;;;12.80;;
3771;SDS011;1901;48.172;12.824;2023-03-16T01:47:18;22.97;;;12.03;;
3771;SDS011;1901;48.172;12.824;2023-03-16T01:49:47;23.87;;;12.97;;
3771;SDS011;1901;48.172;12.824;2023-03-16T01:52:20;22.50;;;11.93;;
3771;SDS011;1901;48.172;12.824;2023-03-16T01:54:48;17.60;;;12.07;;
3771;SDS011;1901;48.172;12.824;2023-03-16T01:57:17;25.57;;;12.77;;
3771;SDS011;1901;48.172;12.824;2023-03-16T01:59:47;28.20;;;15.20;;
3771;SDS011;1901;48.172;12.824;2023-03-16T02:02:16;26.77;;;15.33;;
3771;SDS011;1901;48.172;12.824;2023-03-16T02:04:45;26.60;;;16.67;;
3771;SDS011;1901;48.172;12.824;2023-03-16T02:07:15;30.73;;;16.23;;
3771;SDS011;1901;48.172;12.824;2023-03-16T02:09:44;20.33;;;13.70;;
3771;SDS011;1901;48.172;12.824;2023-03-16T02:12:12;25.30;;;14.80;;
3771;SDS011;1901;48.172;12.824;2023-03-16T02:14:42;32.83;;;17.07;;
3771;SDS011;1901;48.172;12.824;2023-03-16T02:17:09;24.83;;;15.37;;
3771;SDS011;1901;48.172;12.824;2023-03-16T02:19:38;23.30;;;15.07;;
3771;SDS011;1901;48.172;12.824;2023-03-16T02:22:09;21.40;;;13.20;;
3771;SDS011;1901;48.172;12.824;2023-03-16T02:24:39;18.60;;;11.80;;
3771;SDS011;1901;48.172;12.824;2023-03-16T02:27:07;30.30;;;14.47;;
3771;SDS011;1901;48.172;12.824;2023-03-16T02:29:49;28.77;;;15.63;;
3771;SDS011;1901;48.172;12.824;2023-03-16T02:32:18;33.53;;;13.90;;
3771;SDS011;1901;48.172;12.824;2023-03-16T02:34:45;30.80;;;16.00;;
3771;SDS011;1901;48.172;12.824;2023-03-16T02:37:13;26.03;;;17.73;;
3771;SDS011;1901;48.172;12.824;2023-03-16T02:39:40;25.33;;;13.73;;
3771;SDS011;1901;48.172;12.824;2023-03-16T02:42:09;19.90;;;12.27;;
3771;SDS011;1901;48.172;12.824;2023-03-16T02:44:36;31.77;;;14.87;;
3771;SDS011;1901;48.172;12.824;2023-03-16T02:47:08;27.10;;;14.13;;
3771;SDS011;1901;48.172;12.824;2023-03-16T02:49:39;26.83;;;13.63;;
3771;SDS011;1901;48.172;12.824;2023-03-16T02:52:08;24.13;;;13.83;;
3771;SDS011;1901;48.172;12.824;2023-03-16T02:54:35;23.67;;;13.13;;
3771;SDS011;1901;48.172;12.824;2023-03-16T02:57:02;20.13;;;11.53;;
3771;SDS011;1901;48.172;12.824;2023-03-16T02:59:29;19.60;;;14.20;;
3771;SDS011;1901;48.172;12.824;2023-03-16T03:01:57;22.50;;;12.20;;
3771;SDS011;1901;48.172;12.824;2023-03-16T03:04:25;22.73;;;13.47;;
3771;SDS011;1901;48.172;12.824;2023-03-16T03:06:52;21.80;;;12.77;;
3771;SDS011;1901;48.172;12.824;2023-03-16T03:09:19;20.70;;;11.23;;
3771;SDS011;1901;48.172;12.824;2023-03-16T03:11:46;20.10;;;11.63;;
3771;SDS011;1901;48.172;12.824;2023-03-16T03:14:14;22.57;;;12.37;;
3771;SDS011;1901;48.172;12.824;2023-03-16T03:16:41;21.90;;;13.17;;
3771;SDS011;1901;48.172;12.824;2023-03-16T03:19:10;25.03;;;12.90;;
3771;SDS011;1901;48.172;12.824;2023-03-16T03:21:39;18.87;;;11.97;;
3771;SDS011;1901;48.172;12.824;2023-03-16T03:24:06;23.33;;;11.77;;
3771;SDS011;1901;48.172;12.824;2023-03-16T03:26:33;22.67;;;12.00;;
3771;SDS011;1901;48.172;12.824;2023-03-16T03:29:01;32.70;;;15.70;;
3771;SDS011;1901;48.172;12.824;2023-03-16T03:31:29;35.20;;;14.60;;
3771;SDS011;1901;48.172;12.824;2023-03-16T03:33:56;22.50;;;13.13;;
3771;SDS011;1901;48.172;12.824;2023-03-16T03:36:23;17.77;;;11.27;;
3771;SDS011;1901;48.172;12.824;2023-03-16T03:38:51;30.07;;;15.43;;
3771;SDS011;1901;48.172;12.824;2023-03-16T03:41:19;22.40;;;12.80;;
3771;SDS011;1901;48.172;12.824;2023-03-16T03:43:47;23.73;;;13.03;;
3771;SDS011;1901;48.172;12.824;2023-03-16T03:46:14;27.70;;;15.07;;
3771;SDS011;1901;48.172;12.824;2023-03-16T03:48:41;20.37;;;12.40;;
3771;SDS011;1901;48.172;12.824;2023-03-16T03:51:08;22.57;;;13.77;;
3771;SDS011;1901;48.172;12.824;2023-03-16T03:53:35;21.30;;;13.60;;
3771;SDS011;1901;48.172;12.824;2023-03-16T03:56:04;26.70;;;15.80;;
3771;SDS011;1901;48.172;12.824;2023-03-16T03:58:31;20.90;;;13.40;;
3771;SDS011;1901;48.172;12.824;2023-03-16T04:00:58;28.43;;;13.20;;
3771;SDS011;1901;48.172;12.824;2023-03-16T04:03:26;23.20;;;12.87;;
3771;SDS011;1901;48.172;12.824;2023-03-16T04:05:53;21.93;;;12.93;;
3771;SDS011;1901;48.172;12.824;2023-03-16T04:08:20;20.97;;;12.50;;
3771;SDS011;1901;48.172;12.824;2023-03-16T04:10:47;14.67;;;10.07;;
3771;SDS011;1901;48.172;12.824;2023-03-16T04:13:16;26.90;;;13.87;;
3771;SDS011;1901;48.172;12.824;2023-03-16T04:15:43;21.10;;;11.03;;
3771;SDS011;1901;48.172;12.824;2023-03-16T04:18:11;20.03;;;13.90;;
3771;SDS011;1901;48.172;12.824;2023-03-16T04:20:38;17.77;;;10.90;;
3771;SDS011;1901;48.172;12.824;2023-03-16T04:23:05;16.47;;;10.50;;
3771;SDS011;1901;48.172;12.824;2023-03-16T04:25:33;20.07;;;11.77;;
3771;SDS011;1901;48.172;12.824;2023-03-16T04:28:02;17.63;;;11.67;;
3771;SDS011;1901;48.172;12.824;2023-03-16T04:30:30;27.30;;;16.57;;
3771;SDS011;1901;48.172;12.824;2023-03-16T04:32:59;16.73;;;10.70;;
3771;SDS011;1901;48.172;12.824;2023-03-16T04:35:26;43.43;;;11.10;;
3771;SDS011;1901;48.172;12.824;2023-03-16T04:37:53;25.73;;;13.23;;
3771;SDS011;1901;48.172;12.824;2023-03-16T04:40:20;22.60;;;12.50;;
3771;SDS011;1901;48.172;12.824;2023-03-16T04:42:47;33.93;;;12.60;;
3771;SDS011;1901;48.172;12.824;2023-03-16T04:45:15;29.00;;;15.83;;
3771;SDS011;1901;48.172;12.824;2023-03-16T04:47:44;21.60;;;13.03;;
3771;SDS011;1901;48.172;12.824;2023-03-16T04:50:11;43.47;;;15.17;;
3771;SDS011;1901;48.172;12.824;2023-03-16T04:52:38;25.07;;;11.67;;
3771;SDS011;1901;48.172;12.824;2023-03-16T04:55:06;40.67;;;14.30;;
3771;SDS011;1901;48.172;12.824;2023-03-16T04:57:33;28.37;;;13.90;;
3771;SDS011;1901;48.172;12.824;2023-03-16T05:00:00;35.20;;;17.47;;
3771;SDS011;1901;48.172;12.824;2023-03-16T05:02:33;34.57;;;17.53;;
3771;SDS011;1901;48.172;12.824;2023-03-16T05:05:02;26.83;;;15.33;;
3771;SDS011;1901;48.172;12.824;2023-03-16T05:07:29;32.50;;;15.87;;
3771;SDS011;1901;48.172;12.824;2023-03-16T05:09:56;31.07;;;15.93;;
3771;SDS011;1901;48.172;12.824;2023-03-16T05:12:23;24.40;;;14.63;;
3771;SDS011;1901;48.172;12.824;2023-03-16T05:14:50;31.60;;;17.00;;
3771;SDS011;1901;48.172;12.824;2023-03-16T05:17:17;37.27;;;15.33;;
3771;SDS011;1901;48.172;12.824;2023-03-16T05:19:46;26.80;;;13.97;;
3771;SDS011;1901;48.172;12.824;2023-03-16T05:22:14;31.73;;;16.67;;
3771;SDS011;1901;48.172;12.824;2023-03-16T05:24:41;47.47;;;19.57;;
3771;SDS011;1901;48.172;12.824;2023-03-16T05:27:09;37.00;;;16.03;;
3771;SDS011;1901;48.172;12.824;2023-03-16T05:29:36;35.37;;;17.80;;
3771;SDS011;1901;48.172;12.824;2023-03-16T05:32:03;38.43;;;17.33;;
3771;SDS011;1901;48.172;12.824;2023-03-16T05:34:30;81.83;;;24.60;;
3771;SDS011;1901;48.172;12.824;2023-03-16T05:36:57;44.97;;;16.70;;
3771;SDS011;1901;48.172;12.824;2023-03-16T05:39:26;53.83;;;18.20;;
3771;SDS011;1901;48.172;12.824;2023-03-16T05:41:55;60.93;;;20.30;;
3771;SDS011;1901;48.172;12.824;2023-03-16T05:44:22;43.40;;;17.20;;
3771;SDS011;1901;48.172;12.824;2023-03-16T05:46:49;80.60;;;18.23;;
3771;SDS011;1901;48.172;12.824;2023-03-16T05:49:16;88.30;;;18.40;;
3771;SDS011;1901;48.172;12.824;2023-03-16T05:51:44;101.63;;;18.47;;
3771;SDS011;1901;48.172;12.824;2023-03-16T05:54:11;180.90;;;22.93;;
3771;SDS011;1901;48.172;12.824;2023-03-16T05:56:39;108.70;;;18.07;;
3771;SDS011;1901;48.172;12.824;2023-03-16T05:59:06;148.57;;;21.77;;
3771;SDS011;1901;48.172;12.824;2023-03-16T06:01:33;75.47;;;14.17;;
3771;SDS011;1901;48.172;12.824;2023-03-16T06:04:01;85.40;;;15.53;;
3771;SDS011;1901;48.172;12.824;2023-03-16T06:06:29;227.20;;;24.43;;
3771;SDS011;1901;48.172;12.824;2023-03-16T06:08:56;247.03;;;27.50;;
3771;SDS011;1901;48.172;12.824;2023-03-16T06:11:23;104.97;;;17.67;;
3771;SDS011;1901;48.172;12.824;2023-03-16T06:13:52;164.23;;;29.67;;
3771;SDS011;1901;48.172;12.824;2023-03-16T06:16:21;73.93;;;15.33;;
3771;SDS011;1901;48.172;12.824;2023-03-16T06:18:48;152.07;;;19.17;;
3771;SDS011;1901;48.172;12.824;2023-03-16T06:21:16;181.03;;;24.40;;
3771;SDS011;1901;48.172;12.824;2023-03-16T06:23:43;150.47;;;19.10;;
3771;SDS011;1901;48.172;12.824;2023-03-16T06:26:10;240.60;;;28.00;;
3771;SDS011;1901;48.172;12.824;2023-03-16T06:28:37;52.13;;;14.47;;
3771;SDS011;1901;48.172;12.824;2023-03-16T06:31:06;36.97;;;14.00;;
3771;SDS011;1901;48.172;12.824;2023-03-16T06:33:33;68.23;;;15.63;;
3771;SDS011;1901;48.172;12.824;2023-03-16T06:36:01;63.53;;;16.60;;
3771;SDS011;1901;48.172;12.824;2023-03-16T06:38:29;34.40;;;12.73;;
3771;SDS011;1901;48.172;12.824;2023-03-16T06:40:56;57.17;;;17.13;;
3771;SDS011;1901;48.172;12.824;2023-03-16T06:43:23;41.20;;;14.47;;
3771;SDS011;1901;48.172;12.824;2023-03-16T06:45:50;52.07;;;15.10;;
3771;SDS011;1901;48.172;12.824;2023-03-16T06:48:19;33.33;;;15.90;;
3771;SDS011;1901;48.172;12.824;2023-03-16T06:50:46;43.13;;;16.00;;
3771;SDS011;1901;48.172;12.824;2023-03-16T06:53:13;21.10;;;12.80;;
3771;SDS011;1901;48.172;12.824;2023-03-16T06:55:40;35.40;;;13.53;;
3771;SDS011;1901;48.172;12.824;2023-03-16T06:58:07;29.33;;;13.43;;
3771;SDS011;1901;48.172;12.824;2023-03-16T07:00:34;26.23;;;12.40;;
3771;SDS011;1901;48.172;12.824;2023-03-16T07:03:02;28.70;;;12.53;;
3771;SDS011;1901;48.172;12.824;2023-03-16T07:05:30;21.80;;;13.57;;
3771;SDS011;1901;48.172;12.824;2023-03-16T07:07:58;28.43;;;12.43;;
3771;SDS011;1901;48.172;12.824;2023-03-16T07:10:25;37.47;;;13.40;;
3771;SDS011;1901;48.172;12.824;2023-03-16T07:12:52;18.80;;;11.70;;
3771;SDS011;1901;48.172;12.824;2023-03-16T07:15:20;34.97;;;11.87;;
3771;SDS011;1901;48.172;12.824;2023-03-16T07:17:50;20.53;;;12.17;;
3771;SDS011;1901;48.172;12.824;2023-03-16T07:20:17;21.20;;;11.77;;
3771;SDS011;1901;48.172;12.824;2023-03-16T07:22:47;20.07;;;11.60;;
3771;SDS011;1901;48.172;12.824;2023-03-16T07:25:14;16.53;;;11.00;;
3771;SDS011;1901;48.172;12.824;2023-03-16T07:27:41;14.57;;;10.10;;
3771;SDS011;1901;48.172;12.824;2023-03-16T07:30:10;14.20;;;10.87;;
3771;SDS011;1901;48.172;12.824;2023-03-16T07:32:38;12.73;;;10.20;;
3771;SDS011;1901;48.172;12.824;2023-03-16T07:35:05;13.93;;;10.30;;
3771;SDS011;1901;48.172;12.824;2023-03-16T07:37:33;16.23;;;12.27;;
3771;SDS011;1901;48.172;12.824;2023-03-16T07:40:02;14.93;;;11.33;;
3771;SDS011;1901;48.172;12.824;2023-03-16T07:42:33;15.53;;;11.50;;
3771;SDS011;1901;48.172;12.824;2023-03-16T07:45:00;12.23;;;9.93;;
3771;SDS011;1901;48.172;12.824;2023-03-16T07:47:27;15.77;;;11.80;;
3771;SDS011;1901;48.172;12.824;2023-03-16T07:49:55;18.80;;;10.90;;
3771;SDS011;1901;48.172;12.824;2023-03-16T07:52:22;17.10;;;11.20;;
3771;SDS011;1901;48.172;12.824;2023-03-16T07:54:49;13.50;;;10.77;;
3771;SDS011;1901;48.172;12.824;2023-03-16T07:57:18;12.13;;;10.83;;
3771;SDS011;1901;48.172;12.824;2023-03-16T07:59:45;15.87;;;11.80;;
3771;SDS011;1901;48.172;12.824;2023-03-16T08:02:13;12.27;;;9.20;;
3771;SDS011;1901;48.172;12.824;2023-03-16T08:04:40;13.10;;;8.60;;
3771;SDS011;1901;48.172;12.824;2023-03-16T08:07:07;13.67;;;11.60;;
3771;SDS011;1901;48.172;12.824;2023-03-16T08:09:34;14.60;;;11.47;;
3771;SDS011;1901;48.172;12.824;2023-03-16T08:12:02;14.67;;;12.00;;
3771;SDS011;1901;48.172;12.824;2023-03-16T08:14:30;11.27;;;10.07;;
3771;SDS011;1901;48.172;12.824;2023-03-16T08:16:58;20.07;;;11.43;;
3771;SDS011;1901;48.172;12.824;2023-03-16T08:19:25;12.63;;;10.10;;
3771;SDS011;1901;48.172;12.824;2023-03-16T08:21:52;12.30;;;10.23;;
3771;SDS011;1901;48.172;12.824;2023-03-16T08:24:20;12.80;;;9.97;;
3771;SDS011;1901;48.172;12.824;2023-03-16T08:26:47;13.77;;;12.37;;
3771;SDS011;1901;48.172;12.824;2023-03-16T08:29:14;15.33;;;11.60;;
3771;SDS011;1901;48.172;12.824;2023-03-16T08:31:44;13.67;;;11.33;;
3771;SDS011;1901;48.172;12.824;2023-03-16T08:34:11;19.23;;;11.47;;
3771;SDS011;1901;48.172;12.824;2023-03-16T08:36:40;12.70;;;9.93;;
3771;SDS011;1901;48.172;12.824;2023-03-16T08:39:07;17.00;;;11.07;;
3771;SDS011;1901;48.172;12.824;2023-03-16T08:41:35;15.53;;;10.07;;
3771;SDS011;1901;48.172;12.824;2023-03-16T08:44:04;18.23;;;11.70;;
3771;SDS011;1901;48.172;12.824;2023-03-16T08:46:31;15.73;;;11.10;;
3771;SDS011;1901;48.172;12.824;2023-03-16T08:49:00;13.00;;;10.73;;
3771;SDS011;1901;48.172;12.824;2023-03-16T08:51:27;18.73;;;13.50;;
3771;SDS011;1901;48.172;12.824;2023-03-16T08:53:55;14.00;;;10.60;;
3771;SDS011;1901;48.172;12.824;2023-03-16T08:56:23;18.00;;;11.13;;
3771;SDS011;1901;48.172;12.824;2023-03-16T08:58:51;12.77;;;9.57;;
3771;SDS011;1901;48.172;12.824;2023-03-16T09:01:18;17.67;;;10.40;;
3771;SDS011;1901;48.172;12.824;2023-03-16T09:03:46;16.97;;;9.67;;
3771;SDS011;1901;48.172;12.824;2023-03-16T09:06:15;12.17;;;8.80;;
3771;SDS011;1901;48.172;12.824;2023-03-16T09:08:42;9.63;;;8.63;;
3771;SDS011;1901;48.172;12.824;2023-03-16T09:11:12;13.50;;;8.43;;
3771;SDS011;1901;48.172;12.824;2023-03-16T09:13:39;17.23;;;9.43;;
3771;SDS011;1901;48.172;12.824;2023-03-16T09:16:07;9.80;;;8.13;;
3771;SDS011;1901;48.172;12.824;2023-03-16T09:18:34;10.10;;;7.97;;
3771;SDS011;1901;48.172;12.824;2023-03-16T09:21:03;10.33;;;8.60;;
3771;SDS011;1901;48.172;12.824;2023-03-16T09:23:32;9.10;;;7.67;;
3771;SDS011;1901;48.172;12.824;2023-03-16T09:26:02;8.10;;;6.10;;
3771;SDS011;1901;48.172;12.824;2023-03-16T09:28:31;10.10;;;7.50;;
3771;SDS011;1901;48.172;12.824;2023-03-16T09:30:59;8.97;;;6.83;;
3771;SDS011;1901;48.172;12.824;2023-03-16T09:33:27;8.87;;;6.30;;
3771;SDS011;1901;48.172;12.824;2023-03-16T09:35:54;7.10;;;6.40;;
3771;SDS011;1901;48.172;12.824;2023-03-16T09:38:22;6.53;;;5.80;;
3771;SDS011;1901;48.172;12.824;2023-03-16T09:40:56;7.63;;;6.80;;
3771;SDS011;1901;48.172;12.824;2023-03-16T09:46:08;7.17;;;6.13;;
3771;SDS011;1901;48.172;12.824;2023-03-16T09:48:36;7.60;;;6.80;;
3771;SDS011;1901;48.172;12.824;2023-03-16T09:51:05;10.90;;;6.60;;
3771;SDS011;1901;48.172;12.824;2023-03-16T09:53:33;7.40;;;6.50;;
3771;SDS011;1901;48.172;12.824;2023-03-16T09:56:03;6.60;;;5.90;;
3771;SDS011;1901;48.172;12.824;2023-03-16T09:58:30;6.77;;;5.10;;
3771;SDS011;1901;48.172;12.824;2023-03-16T10:00:59;6.00;;;5.43;;
3771;SDS011;1901;48.172;12.824;2023-03-16T10:03:31;8.47;;;7.27;;
3771;SDS011;1901;48.172;12.824;2023-03-16T10:06:02;5.57;;;5.07;;
3771;SDS011;1901;48.172;12.824;2023-03-16T10:08:32;5.93;;;5.23;;
3771;SDS011;1901;48.172;12.824;2023-03-16T10:11:12;4.70;;;4.27;;
3771;SDS011;1901;48.172;12.824;2023-03-16T10:13:45;7.53;;;5.60;;
3771;SDS011;1901;48.172;12.824;2023-03-16T10:16:13;6.43;;;5.83;;
3771;SDS011;1901;48.172;12.824;2023-03-16T10:18:43;5.30;;;4.00;;
3771;SDS011;1901;48.172;12.824;2023-03-16T10:21:11;7.30;;;4.57;;
3771;SDS011;1901;48.172;12.824;2023-03-16T10:23:38;5.50;;;5.00;;
3771;SDS011;1901;48.172;12.824;2023-03-16T10:26:09;6.90;;;4.90;;
3771;SDS011;1901;48.172;12.824;2023-03-16T10:28:39;5.47;;;4.97;;
3771;SDS011;1901;48.172;12.824;2023-03-16T10:31:09;5.17;;;4.67;;
3771;SDS011;1901;48.172;12.824;2023-03-16T10:33:38;5.10;;;4.60;;
3771;SDS011;1901;48.172;12.824;2023-03-16T10:36:09;5.10;;;4.60;;
3771;SDS011;1901;48.172;12.824;2023-03-16T10:38:39;6.80;;;5.60;;
3771;SDS011;1901;48.172;12.824;2023-03-16T10:41:21;6.10;;;5.50;;
3771;SDS011;1901;48.172;12.824;2023-03-16T10:43:51;6.67;;;5.97;;
3771;SDS011;1901;48.172;12.824;2023-03-16T10:46:19;4.80;;;4.30;;
3771;SDS011;1901;48.172;12.824;2023-03-16T10:48:50;9.40;;;4.53;;
3771;SDS011;1901;48.172;12.824;2023-03-16T10:51:18;5.23;;;4.43;;
3771;SDS011;1901;48.172;12.824;2023-03-16T10:53:49;7.80;;;5.20;;
3771;SDS011;1901;48.172;12.824;2023-03-16T10:56:18;4.77;;;4.03;;
3771;SDS011;1901;48.172;12.824;2023-03-16T10:58:46;4.53;;;4.13;;
3771;SDS011;1901;48.172;12.824;2023-03-16T11:01:17;4.83;;;4.10;;
3771;SDS011;1901;48.172;12.824;2023-03-16T11:03:47;3.97;;;3.57;;
3771;SDS011;1901;48.172;12.824;2023-03-16T11:06:19;4.23;;;3.83;;
3771;SDS011;1901;48.172;12.824;2023-03-16T11:08:47;4.23;;;3.50;;
3771;SDS011;1901;48.172;12.824;2023-03-16T11:11:16;4.23;;;3.90;;
3771;SDS011;1901;48.172;12.824;2023-03-16T11:13:44;3.60;;;3.30;;
3771;SDS011;1901;48.172;12.824;2023-03-16T11:16:24;4.70;;;3.53;;
3771;SDS011;1901;48.172;12.824;2023-03-16T11:18:55;2.90;;;2.60;;
3771;SDS011;1901;48.172;12.824;2023-03-16T11:21:26;5.27;;;3.10;;
3771;SDS011;1901;48.172;12.824;2023-03-16T11:23:56;6.47;;;3.70;;
3771;SDS011;1901;48.172;12.824;2023-03-16T11:26:27;4.83;;;3.87;;
3771;SDS011;1901;48.172;12.824;2023-03-16T11:28:55;3.47;;;3.17;;
3771;SDS011;1901;48.172;12.824;2023-03-16T11:31:31;4.40;;;4.00;;
3771;SDS011;1901;48.172;12.824;2023-03-16T11:34:00;3.40;;;3.03;;
3771;SDS011;1901;48.172;12.824;2023-03-16T11:36:34;3.43;;;3.10;;
3771;SDS011;1901;48.172;12.824;2023-03-16T11:39:06;3.30;;;3.00;;
3771;SDS011;1901;48.172;12.824;2023-03-16T11:41:39;3.20;;;2.90;;
3771;SDS011;1901;48.172;12.824;2023-03-16T11:44:12;4.37;;;3.90;;
3771;SDS011;1901;48.172;12.824;2023-03-16T11:46:41;4.83;;;3.50;;
3771;SDS011;1901;48.172;12.824;2023-03-16T11:49:17;4.20;;;3.40;;
3771;SDS011;1901;48.172;12.824;2023-03-16T11:51:51;3.83;;;3.50;;
3771;SDS011;1901;48.172;12.824;2023-03-16T11:54:27;3.43;;;3.13;;
3771;SDS011;1901;48.172;12.824;2023-03-16T11:56:58;5.23;;;3.30;;
3771;SDS011;1901;48.172;12.824;2023-03-16T11:59:29;3.60;;;3.30;;
3771;SDS011;1901;48.172;12.824;2023-03-16T12:02:05;3.57;;;2.97;;
3771;SDS011;1901;48.172;12.824;2023-03-16T12:04:42;4.07;;;3.30;;
3771;SDS011;1901;48.172;12.824;2023-03-16T12:07:13;5.23;;;2.93;;
3771;SDS011;1901;48.172;12.824;2023-03-16T12:12:33;4.93;;;3.40;;
3771;SDS011;1901;48.172;12.824;2023-03-16T12:15:07;9.97;;;5.40;;
3771;SDS011;1901;48.172;12.824;2023-03-16T12:17:37;5.10;;;3.23;;
3771;SDS011;1901;48.172;12.824;2023-03-16T12:20:06;3.73;;;3.10;;
3771;SDS011;1901;48.172;12.824;2023-03-16T12:22:38;3.60;;;3.30;;
3771;SDS011;1901;48.172;12.824;2023-03-16T12:25:11;3.90;;;3.50;;
3771;SDS011;1901;48.172;12.824;2023-03-16T12:27:41;4.10;;;3.63;;
3771;SDS011;1901;48.172;12.824;2023-03-16T12:30:16;4.63;;;3.50;;
3771;SDS011;1901;48.172;12.824;2023-03-16T12:32:50;3.40;;;2.90;;
3771;SDS011;1901;48.172;12.824;2023-03-16T12:35:24;5.70;;;3.30;;
3771;SDS011;1901;48.172;12.824;2023-03-16T12:37:55;4.40;;;3.47;;
3771;SDS011;1901;48.172;12.824;2023-03-16T12:40:29;3.33;;;3.03;;
3771;SDS011;1901;48.172;12.824;2023-03-16T12:43:05;4.97;;;3.33;;
3771;SDS011;1901;48.172;12.824;2023-03-16T12:45:35;3.93;;;3.63;;
3771;SDS011;1901;48.172;12.824;2023-03-16T12:48:13;4.03;;;3.30;;
3771;SDS011;1901;48.172;12.824;2023-03-16T12:50:47;3.77;;;3.13;;
3771;SDS011;1901;48.172;12.824;2023-03-16T12:53:25;3.40;;;3.10;;
3771;SDS011;1901;48.172;12.824;2023-03-16T12:55:53;3.50;;;3.20;;
3771;SDS011;1901;48.172;12.824;2023-03-16T12:58:22;3.57;;;3.27;;
3771;SDS011;1901;48.172;12.824;2023-03-16T13:00:54;4.07;;;3.07;;
3771;SDS011;1901;48.172;12.824;2023-03-16T13:03:23;4.80;;;4.00;;
3771;SDS011;1901;48.172;12.824;2023-03-16T13:05:52;5.50;;;3.43;;
3771;SDS011;1901;48.172;12.824;2023-03-16T13:08:19;5.57;;;2.97;;
3771;SDS011;1901;48.172;12.824;2023-03-16T13:11:00;5.00;;;2.90;;
3771;SDS011;1901;48.172;12.824;2023-03-16T13:13:27;13.40;;;7.07;;
3771;SDS011;1901;48.172;12.824;2023-03-16T13:16:02;4.67;;;3.43;;
3771;SDS011;1901;48.172;12.824;2023-03-16T13:18:34;3.93;;;2.50;;
3771;SDS011;1901;48.172;12.824;2023-03-16T13:21:12;3.70;;;2.90;;
3771;SDS011;1901;48.172;12.824;2023-03-16T13:23:53;6.50;;;2.83;;
3771;SDS011;1901;48.172;12.824;2023-03-16T13:26:22;3.87;;;3.13;;
3771;SDS011;1901;48.172;12.824;2023-03-16T13:28:53;5.80;;;3.90;;
3771;SDS011;1901;48.172;12.824;2023-03-16T13:31:22;3.50;;;2.60;;
3771;SDS011;1901;48.172;12.824;2023-03-16T13:33:54;2.77;;;2.10;;
3771;SDS011;1901;48.172;12.824;2023-03-16T13:36:24;3.60;;;3.30;;
3771;SDS011;1901;48.172;12.824;2023-03-16T13:38:56;3.60;;;2.93;;
3771;SDS011;1901;48.172;12.824;2023-03-16T13:41:23;3.50;;;2.93;;
3771;SDS011;1901;48.172;12.824;2023-03-16T13:43:50;3.00;;;2.50;;
3771;SDS011;1901;48.172;12.824;2023-03-16T13:46:18;4.67;;;2.70;;
3771;SDS011;1901;48.172;12.824;2023-03-16T13:48:46;3.20;;;2.80;;
3771;SDS011;1901;48.172;12.824;2023-03-16T13:51:15;3.70;;;3.40;;
3771;SDS011;1901;48.172;12.824;2023-03-16T13:53:45;4.87;;;2.73;;
3771;SDS011;1901;48.172;12.824;2023-03-16T13:56:12;3.40;;;2.50;;
3771;SDS011;1901;48.172;12.824;2023-03-16T13:58:42;3.20;;;2.20;;
3771;SDS011;1901;48.172;12.824;2023-03-16T14:01:12;3.33;;;3.03;;
3771;SDS011;1901;48.172;12.824;2023-03-16T14:03:43;4.20;;;3.10;;
3771;SDS011;1901;48.172;12.824;2023-03-16T14:06:17;3.60;;;2.40;;
3771;SDS011;1901;48.172;12.824;2023-03-16T14:08:46;3.73;;;2.63;;
3771;SDS011;1901;48.172;12.824;2023-03-16T14:11:15;3.67;;;2.83;;
3771;SDS011;1901;48.172;12.824;2023-03-16T14:13:42;3.40;;;2.77;;
3771;SDS011;1901;48.172;12.824;2023-03-16T14:16:18;4.47;;;3.30;;
3771;SDS011;1901;48.172;12.824;2023-03-16T14:18:46;3.83;;;3.10;;
3771;SDS011;1901;48.172;12.824;2023-03-16T14:21:14;2.90;;;2.10;;
3771;SDS011;1901;48.172;12.824;2023-03-16T14:23:44;3.43;;;2.80;;
3771;SDS011;1901;48.172;12.824;2023-03-16T14:26:12;3.23;;;2.57;;
3771;SDS011;1901;48.172;12.824;2023-03-16T14:28:40;2.43;;;1.80;;
3771;SDS011;1901;48.172;12.824;2023-03-16T14:31:09;3.83;;;3.10;;
3771;SDS011;1901;48.172;12.824;2023-03-16T14:33:37;4.80;;;3.47;;
3771;SDS011;1901;48.172;12.824;2023-03-16T14:36:06;8.40;;;3.40;;
3771;SDS011;1901;48.172;12.824;2023-03-16T14:38:35;2.87;;;2.13;;
3771;SDS011;1901;48.172;12.824;2023-03-16T14:41:11;3.37;;;2.33;;
3771;SDS011;1901;48.172;12.824;2023-03-16T14:43:43;3.87;;;2.83;;
3771;SDS011;1901;48.172;12.824;2023-03-16T14:46:11;3.07;;;2.77;;
3771;SDS011;1901;48.172;12.824;2023-03-16T14:48:39;4.40;;;3.00;;
3771;SDS011;1901;48.172;12.824;2023-03-16T14:51:08;3.90;;;3.00;;
3771;SDS011;1901;48.172;12.824;2023-03-16T14:53:38;5.57;;;3.57;;
3771;SDS011;1901;48.172;12.824;2023-03-16T14:56:09;4.77;;;3.70;;
3771;SDS011;1901;48.172;12.824;2023-03-16T14:58:38;4.30;;;3.90;;
3771;SDS011;1901;48.172;12.824;2023-03-16T15:01:05;4.63;;;3.40;;